Kellerton, Iowa
Current Conditions -  °F | °C
As of 10:53 PM on Monday 20 Oct 2014 (Local Time) from KLWD Reporting Station
Clear Clear  
Wind Chill: 47°   Ceiling: Unl
Heat Index: 49°   Visibility: 10mi
Dew Point: 41°   Wind: 5mph
Humidity: 74%   Direction: 270°W
Pressure: 30.07"   Gusts: NA
Location:  40.71°N, 94.05°W
Report Text: KLWD 210353Z AUTO 27004KT 10SM CLR 09/05 A3007 RMK AO2 SLP182 T00940050
Loading
Personal Weather Stations






























Interactive Weather Map
Tropical Storm Tracking
New forecast layout! Learn more

10-Day Weather Forecast

Advertisements
Track Severe Weather on mobile